Home > Products > Valid Products > TAF

000
FTUS42 KMLB 290525
TAFDAB
TAF
KDAB 290525Z 2906/3006 05005KT P6SM SCT040
     FM291400 06010KT P6SM SCT040
     FM291800 06013KT P6SM SCT040
     FM300100 07004KT P6SM SCT035=



000
FTUS42 KMLB 290525
TAFMLB
TAF
KMLB 290525Z 2906/3006 08007KT P6SM SCT040
     FM291400 07011KT P6SM SCT040
     FM291800 07013KT P6SM SCT040
     FM300100 08009KT P6SM SCT035=



000
FTUS42 KMLB 290525
TAFVRB
TAF
KVRB 290525Z 2906/3006 08007KT P6SM SCT040
     FM291400 07011KT P6SM SCT040
     FM291800 07013KT P6SM SCT040
     FM300100 08007KT P6SM SCT035=



000
FTUS42 KMLB 290525
TAFMCO
TAF
KMCO 290525Z 2906/3006 05003KT P6SM FEW035
     FM291500 07011KT P6SM SCT035
     FM291800 07013KT P6SM SCT045
     FM300100 06007KT P6SM FEW045=



000
FTUS42 KMLB 290525
TAFSFB
TAF
KSFB 290525Z 2906/3006 05003KT P6SM SCT035
     FM291500 07010KT P6SM SCT035
     FM291800 08013KT P6SM SCT045
     FM300100 07006KT P6SM FEW045=



000
FTUS42 KMLB 290250 AAB
TAFMCO
TAF AMD
KMCO 290250Z 2903/2924 05003KT P6SM FEW250
     FM290600 VRB02KT P6SM FEW250
     FM291500 07012KT P6SM SCT035
     FM292100 07012KT P6SM VCTS SCT040CB=



000
FTUS42 KMLB 290200 AAA
TAFMCO
TAF AMD
KMCO 290200Z 2902/2924 07006KT P6SM FEW250
     FM290600 VRB02KT P6SM FEW250
     FM291500 07012KT P6SM SCT035
     FM292100 07012KT P6SM VCTS SCT040CB=



000
FTUS42 KMLB 290200 AAA
TAFMCO
TAF AMD
KMCO 290200Z 2902/2924 07006KT P6SM FEW250
     FM290600 VRB02KT P6SM FEW250
     FM291500 07012KT P6SM SCT035
     FM292100 07012KT P6SM VCTS SCT040CB=



000
FTUS42 KMLB 282320
TAFMCO
TAF
KMCO 282320Z 2900/2924 06016KT P6SM FEW045
     FM290200 07007KT P6SM SKC
     FM291500 07012KT P6SM SCT035
     FM292100 07012KT P6SM VCTS SCT040CB=



000
FTUS42 KMLB 282320
TAFMCO
TAF
KMCO 282320Z 2900/2924 06016KT P6SM FEW045
     FM290200 07007KT P6SM SKC
     FM291500 07012KT P6SM SCT035
     FM292100 07012KT P6SM VCTS SCT040CB=



000
FTUS42 KMLB 282320
TAFDAB
TAF
KDAB 282320Z 2900/2924 09006KT P6SM SCT035 SCT250
     FM290200 06007KT P6SM FEW035
     FM291400 07012KT P6SM VCSH SCT035
     FM291800 06012KT P6SM SCT035=



000
FTUS42 KMLB 282320
TAFMLB
TAF
KMLB 282320Z 2900/2924 08010KT P6SM SCT035 SCT050
     FM290200 08010KT P6SM SCT030
     FM291300 08014G19KT P6SM VCSH SCT030 BKN040=



000
FTUS42 KMLB 282320
TAFSFB
TAF
KSFB 282320Z 2900/2924 09010KT P6SM FEW045
     FM290200 07007KT P6SM SKC
     FM291500 08012KT P6SM SCT035
     FM292100 08012KT P6SM VCTS SCT040CB=



000
FTUS42 KMLB 282320
TAFVRB
TAF
KVRB 282320Z 2900/2924 07009KT P6SM SCT040
     FM290200 08010KT P6SM SCT030
     FM291300 08012G19KT P6SM VCSH SCT030 BKN040=



000
FTUS42 KMLB 282320
TAFMLB
TAF
KMLB 282320Z 2900/2924 08010KT P6SM SCT035 SCT050
     FM290200 08010KT P6SM SCT030
     FM291300 08014G19KT P6SM VCSH SCT030 BKN040=



000
FTUS42 KMLB 282320
TAFVRB
TAF
KVRB 282320Z 2900/2924 07009KT P6SM SCT040
     FM290200 08010KT P6SM SCT030
     FM291300 08012G19KT P6SM VCSH SCT030 BKN040=



000
FTUS42 KMLB 282320
TAFSFB
TAF
KSFB 282320Z 2900/2924 09010KT P6SM FEW045
     FM290200 07007KT P6SM SKC
     FM291500 08012KT P6SM SCT035
     FM292100 08012KT P6SM VCTS SCT040CB=



000
FTUS42 KMLB 282320
TAFDAB
TAF
KDAB 282320Z 2900/2924 09006KT P6SM SCT035 SCT250
     FM290200 06007KT P6SM FEW035
     FM291400 07012KT P6SM VCSH SCT035
     FM291800 06012KT P6SM SCT035=



000
FTUS42 KMLB 282101 AAB
TAFMLB
TAF AMD
KMLB 282101Z 2821/2918 06012KT P6SM FEW045
     FM290200 08010KT P6SM SCT030
     FM291300 08014G19KT P6SM VCSH SCT030 BKN040=



000
FTUS42 KMLB 282101 AAB
TAFMLB
TAF AMD
KMLB 282101Z 2821/2918 06012KT P6SM FEW045
     FM290200 08010KT P6SM SCT030
     FM291300 08014G19KT P6SM VCSH SCT030 BKN040=



000
FTUS42 KMLB 282100 AAA
TAFMCO
TAF AMD
KMCO 282100Z 2821/2918 07013KT P6SM SCT045
     FM290200 07007KT P6SM SKC
     FM291500 07012KT P6SM SCT035=



000
FTUS42 KMLB 281720
TAFMCO
TAF
KMCO 281720Z 2818/2918 10012G17KT P6SM SCT050
      TEMPO 2818/2819 BKN050
     FM290200 07007KT P6SM SKC
     FM291500 07012KT P6SM SCT035=



000
FTUS42 KMLB 281720
TAFSFB
TAF
KSFB 281720Z 2818/2918 10012G17KT P6SM SCT050
      TEMPO 2818/2819 BKN050
     FM290200 07007KT P6SM SKC
     FM291500 08012KT P6SM SCT035=



000
FTUS42 KMLB 281720
TAFMLB
TAF
KMLB 281720Z 2818/2918 09012G18KT P6SM SCT040
     FM290200 08010KT P6SM SCT030
     FM291300 08014G19KT P6SM VCSH SCT030 BKN040=



000
FTUS42 KMLB 281720
TAFDAB
TAF
KDAB 281720Z 2818/2918 07010G16KT P6SM SCT040
      TEMPO 2818/2819 BKN040
     FM290200 06007KT P6SM FEW035
     FM291400 07012KT P6SM SCT035=



000
FTUS42 KMLB 281720
TAFVRB
TAF
KVRB 281720Z 2818/2918 07012G18KT P6SM FEW040
     FM290200 08010KT P6SM SCT030
     FM291300 08012G19KT P6SM VCSH SCT030 BKN040=



000
FTUS42 KMLB 281720
TAFMCO
TAF
KMCO 281720Z 2818/2918 10012G17KT P6SM SCT050
      TEMPO 2818/2819 BKN050
     FM290200 07007KT P6SM SKC
     FM291500 07012KT P6SM SCT035=



000
FTUS42 KMLB 281720
TAFSFB
TAF
KSFB 281720Z 2818/2918 10012G17KT P6SM SCT050
      TEMPO 2818/2819 BKN050
     FM290200 07007KT P6SM SKC
     FM291500 08012KT P6SM SCT035=



000
FTUS42 KMLB 281720
TAFVRB
TAF
KVRB 281720Z 2818/2918 07012G18KT P6SM FEW040
     FM290200 08010KT P6SM SCT030
     FM291300 08012G19KT P6SM VCSH SCT030 BKN040=



000
FTUS42 KMLB 281720
TAFDAB
TAF
KDAB 281720Z 2818/2918 07010G16KT P6SM SCT040
      TEMPO 2818/2819 BKN040
     FM290200 06007KT P6SM FEW035
     FM291400 07012KT P6SM SCT035=



000
FTUS42 KMLB 281720
TAFMLB
TAF
KMLB 281720Z 2818/2918 09012G18KT P6SM SCT040
     FM290200 08010KT P6SM SCT030
     FM291300 08014G19KT P6SM VCSH SCT030 BKN040=



000
FTUS42 KMLB 281120
TAFMCO
TAF
KMCO 281120Z 2812/2912 06005KT P6SM FEW030
     FM281400 08009KT P6SM SCT035
     FM281800 08013G19KT P6SM SCT050
     FM290200 07007KT P6SM FEW030=



000
FTUS42 KMLB 281120
TAFSFB
TAF
KSFB 281120Z 2812/2912 06005KT P6SM FEW030
     FM281400 08009KT P6SM SCT035
     FM281800 08013G19KT P6SM SCT050
     FM290200 07007KT P6SM FEW030=



000
FTUS42 KMLB 281120
TAFVRB
TAF
KVRB 281120Z 2812/2912 10010KT P6SM SCT030 BKN060
     FM281400 08014G20KT P6SM SCT040
     FM290200 08010KT P6SM SCT030=



000
FTUS42 KMLB 281120
TAFDAB
TAF
KDAB 281120Z 2812/2912 09007KT P6SM SCT030
     FM281500 08012G18KT P6SM SCT035 SCT050
      TEMPO 2815/2818 BKN050
     FM290200 06007KT P6SM SCT030=



000
FTUS42 KMLB 281120
TAFDAB
TAF
KDAB 281120Z 2812/2912 09007KT P6SM SCT030
     FM281500 08012G18KT P6SM SCT035 SCT050
      TEMPO 2815/2818 BKN050
     FM290200 06007KT P6SM SCT030=



000
FTUS42 KMLB 281120
TAFVRB
TAF
KVRB 281120Z 2812/2912 10010KT P6SM SCT030 BKN060
     FM281400 08014G20KT P6SM SCT040
     FM290200 08010KT P6SM SCT030=



000
FTUS42 KMLB 281120
TAFMLB
TAF
KMLB 281120Z 2812/2912 08010KT P6SM SCT030 SCT050
      TEMPO 2812/2814 BKN050
     FM281400 08014G20KT P6SM SCT040
     FM290200 08010KT P6SM SCT030=



000
FTUS42 KMLB 281120
TAFMCO
TAF
KMCO 281120Z 2812/2912 06005KT P6SM FEW030
     FM281400 08009KT P6SM SCT035
     FM281800 08013G19KT P6SM SCT050
     FM290200 07007KT P6SM FEW030=



000
FTUS42 KMLB 281120
TAFMLB
TAF
KMLB 281120Z 2812/2912 08010KT P6SM SCT030 SCT050
      TEMPO 2812/2814 BKN050
     FM281400 08014G20KT P6SM SCT040
     FM290200 08010KT P6SM SCT030=



000
FTUS42 KMLB 281120
TAFSFB
TAF
KSFB 281120Z 2812/2912 06005KT P6SM FEW030
     FM281400 08009KT P6SM SCT035
     FM281800 08013G19KT P6SM SCT050
     FM290200 07007KT P6SM FEW030=



000
FTUS42 KMLB 280850 AAA
TAFMCO
TAF AMD
KMCO 280850Z 2809/2906 VRB03KT P6SM FEW030
     FM281400 08009KT P6SM SCT035
     FM281800 08013G19KT P6SM SCT050
     FM290200 07007KT P6SM FEW030=



000
FTUS42 KMLB 280520
TAFDAB
TAF
KDAB 280520Z 2806/2906 07006KT P6SM SCT030
     FM281500 08012G18KT P6SM SCT035
     FM290200 06007KT P6SM SCT030=



000
FTUS42 KMLB 280520
TAFMLB
TAF
KMLB 280520Z 2806/2906 09010KT P6SM SCT030
     FM281400 08014G20KT P6SM SCT040
     FM290200 08010KT P6SM SCT030=



000
FTUS42 KMLB 280520
TAFSFB
TAF
KSFB 280520Z 2806/2906 06005KT P6SM FEW030
     FM281400 08009KT P6SM SCT035
     FM281800 08013G19KT P6SM SCT050
     FM290200 07007KT P6SM FEW030=



000
FTUS42 KMLB 280520
TAFMCO
TAF
KMCO 280520Z 2806/2906 06005KT P6SM FEW030
     FM281400 08009KT P6SM SCT035
     FM281800 08013G19KT P6SM SCT050
     FM290200 07007KT P6SM FEW030=



000
FTUS42 KMLB 280520
TAFVRB
TAF
KVRB 280520Z 2806/2906 09010KT P6SM SCT030
     FM281400 08014G20KT P6SM SCT040
     FM290200 08010KT P6SM SCT030=



000
FTUS42 KMLB 280254 AAA
TAFMCO
TAF AMD
KMCO 280254Z 2803/2824 09006KT P6SM FEW035 FEW250
     FM280600 07003KT P6SM FEW040
     FM281400 08009KT P6SM SCT030 SCT250
     FM281800 07012KT P6SM SCT040=



000
FTUS42 KMLB 272335
TAFDAB
TAF
KDAB 272335Z 2800/2824 08012KT P6SM FEW035 BKN250
     FM280100 07003KT P6SM FEW030 SCT250
     FM281500 08011KT P6SM SCT030 SCT250=



000
FTUS42 KMLB 272335
TAFVRB
TAF
KVRB 272335Z 2800/2824 09012KT P6SM VCSH FEW028 BKN040
     FM280400 09008KT P6SM VCSH SCT030 SCT250
     FM281200 08011KT P6SM SCT020 SCT250
     FM281500 06015KT P6SM VCSH SCT040 SCT070=



000
FTUS42 KMLB 272335
TAFMCO
TAF
KMCO 272335Z 2800/2824 06010KT P6SM VCSH SCT035 SCT070 BKN250
     FM280200 06005KT P6SM FEW040 SCT250
     FM281400 08009KT P6SM SCT030 SCT250
     FM281800 07012KT P6SM SCT040=



000
FTUS42 KMLB 272335
TAFSFB
TAF
KSFB 272335Z 2800/2824 09010KT P6SM SCT050 BKN250
     FM280200 07005KT P6SM FEW040 SCT250
     FM281500 08009KT P6SM SCT030 SCT250
     FM281800 07012KT P6SM SCT040=



000
FTUS42 KMLB 272335
TAFMLB
TAF
KMLB 272335Z 2800/2824 09012KT P6SM VCSH SCT025 BKN060
     FM280400 09010KT P6SM VCSH SCT030 SCT250
     FM281200 09014KT P6SM SCT020 SCT250
     FM281500 06014KT P6SM VCSH SCT040 SCT070=



000
FTUS42 KMLB 272335
TAFDAB
TAF
KDAB 272335Z 2800/2824 08012KT P6SM FEW035 BKN250
     FM280100 07003KT P6SM FEW030 SCT250
     FM281500 08011KT P6SM SCT030 SCT250=



000
FTUS42 KMLB 272335
TAFVRB
TAF
KVRB 272335Z 2800/2824 09012KT P6SM VCSH FEW028 BKN040
     FM280400 09008KT P6SM VCSH SCT030 SCT250
     FM281200 08011KT P6SM SCT020 SCT250
     FM281500 06015KT P6SM VCSH SCT040 SCT070=



000
FTUS42 KMLB 272335
TAFMCO
TAF
KMCO 272335Z 2800/2824 06010KT P6SM VCSH SCT035 SCT070 BKN250
     FM280200 06005KT P6SM FEW040 SCT250
     FM281400 08009KT P6SM SCT030 SCT250
     FM281800 07012KT P6SM SCT040=



000
FTUS42 KMLB 272335
TAFSFB
TAF
KSFB 272335Z 2800/2824 09010KT P6SM SCT050 BKN250
     FM280200 07005KT P6SM FEW040 SCT250
     FM281500 08009KT P6SM SCT030 SCT250
     FM281800 07012KT P6SM SCT040=



000
FTUS42 KMLB 272335
TAFMLB
TAF
KMLB 272335Z 2800/2824 09012KT P6SM VCSH SCT025 BKN060
     FM280400 09010KT P6SM VCSH SCT030 SCT250
     FM281200 09014KT P6SM SCT020 SCT250
     FM281500 06014KT P6SM VCSH SCT040 SCT070=



000
FTUS42 KMLB 272108 AAB
TAFMLB
TAF AMD
KMLB 272108Z 2721/2818 06010KT P6SM VCSH SCT035 BKN070
     FM280200 09010KT P6SM VCSH SCT030 SCT250
     FM281200 09014KT P6SM SCT020 SCT250=



000
FTUS42 KMLB 272108 AAA
TAFMCO
TAF AMD
KMCO 272108Z 2721/2818 08012KT P6SM VCSH SCT060 BKN250
     FM280200 06005KT P6SM FEW040 SCT250
     FM281400 08009KT P6SM SCT030 SCT250=



000
FTUS42 KMLB 271734
TAFSFB
TAF
KSFB 271734Z 2718/2818 11011KT P6SM FEW050 SCT250
     FM280200 07005KT P6SM FEW040 SCT250
     FM281500 08009KT P6SM SCT030 SCT250=



000
FTUS42 KMLB 271734
TAFDAB
TAF
KDAB 271734Z 2718/2818 08010KT P6SM FEW040 SCT250
     FM280100 07003KT P6SM FEW030 SCT250
     FM281500 08009KT P6SM SCT030 SCT250=



000
FTUS42 KMLB 271734
TAFMCO
TAF
KMCO 271734Z 2718/2818 11013KT P6SM SCT050 SCT250
     FM280200 06005KT P6SM FEW040 SCT250
     FM281400 08009KT P6SM SCT030 SCT250=



000
FTUS42 KMLB 271734
TAFMLB
TAF
KMLB 271734Z 2718/2818 09011G18KT P6SM VCSH SCT030 SCT050 SCT250
     FM280200 09010KT P6SM VCSH SCT030 SCT250
     FM281200 09014KT P6SM SCT020 SCT250=



000
FTUS42 KMLB 271734
TAFVRB
TAF
KVRB 271734Z 2718/2818 09011KT P6SM VCSH SCT030 SCT050 SCT250
     FM280200 09008KT P6SM VCSH SCT030 SCT250
     FM281200 08011KT P6SM SCT020 SCT250=



000
FTUS42 KMLB 271504 AAA
TAFMCO
TAF AMD
KMCO 271504Z 2715/2812 12008KT P6SM SCT035 BKN060 BKN250
     FM271900 10013KT P6SM SCT040 SCT250
     FM280200 08006KT P6SM FEW050 SCT250=



000
FTUS42 KMLB 271504 AAA
TAFMCO
TAF AMD
KMCO 271504Z 2715/2812 12008KT P6SM SCT035 BKN060 BKN250
     FM271900 10013KT P6SM SCT040 SCT250
     FM280200 08006KT P6SM FEW050 SCT250=



000
FTUS42 KMLB 271131
TAFDAB
TAF
KDAB 271131Z 2712/2812 10006KT P6SM SCT030 SCT250
     FM271600 08013KT P6SM SCT040 SCT250
     FM280100 08006KT P6SM FEW030 SCT250=



000
FTUS42 KMLB 271131
TAFVRB
TAF
KVRB 271131Z 2712/2812 09012KT P6SM SCT025 SCT250
     FM271400 09014G20KT P6SM SCT040 SCT250
     FM280200 08010KT P6SM SCT030 SCT250=



000
FTUS42 KMLB 271131
TAFSFB
TAF
KSFB 271131Z 2712/2812 08005KT P6SM FEW025 SCT250
     FM271500 09013KT P6SM SCT040 SCT250
     FM280200 08006KT P6SM FEW050 SCT250=



000
FTUS42 KMLB 271131
TAFMLB
TAF
KMLB 271131Z 2712/2812 09012KT P6SM SCT025 SCT250
     FM271400 09014G20KT P6SM SCT040 SCT250
     FM280200 08011KT P6SM SCT030 SCT250=



000
FTUS42 KMLB 271131
TAFMCO
TAF
KMCO 271131Z 2712/2812 09007KT P6SM FEW025 SCT250
     FM271500 09013KT P6SM SCT040 SCT250
     FM280200 08006KT P6SM FEW050 SCT250=



000
FTUS42 KMLB 270859 AAA
TAFMCO
TAF AMD
KMCO 270859Z 2709/2806 09007KT P6SM FEW025 BKN250
     FM271500 09012KT P6SM SCT040 SCT250
     FM280200 08006KT P6SM FEW050 SCT250=



000
FTUS42 KMLB 270859 AAA
TAFMCO
TAF AMD
KMCO 270859Z 2709/2806 09007KT P6SM FEW025 BKN250
     FM271500 09012KT P6SM SCT040 SCT250
     FM280200 08006KT P6SM FEW050 SCT250=



000
FTUS42 KMLB 270535
TAFMLB
TAF
KMLB 270535Z 2706/2806 09009KT P6SM SCT025 BKN250
     FM271500 09014G20KT P6SM SCT040 SCT250
     FM280200 08011KT P6SM SCT030 SCT250=



000
FTUS42 KMLB 270535
TAFMCO
TAF
KMCO 270535Z 2706/2806 08005KT P6SM FEW025 BKN250
     FM271500 09012KT P6SM SCT040 SCT250
     FM280200 08006KT P6SM FEW050 SCT250=



000
FTUS42 KMLB 270535
TAFSFB
TAF
KSFB 270535Z 2706/2806 08005KT P6SM FEW025 BKN250
     FM271500 09012KT P6SM SCT040 SCT250
     FM280200 08006KT P6SM FEW050 SCT250=



000
FTUS42 KMLB 270535
TAFVRB
TAF
KVRB 270535Z 2706/2806 10009KT P6SM SCT025 SCT250
     FM271500 09014G20KT P6SM SCT040 SCT250
     FM280200 08010KT P6SM SCT030 SCT250=



000
FTUS42 KMLB 270535
TAFDAB
TAF
KDAB 270535Z 2706/2806 10006KT P6SM FEW025 BKN250
     FM271600 08012KT P6SM SCT040 SCT250
     FM280100 08006KT P6SM FEW030 SCT250=



000
FTUS42 KMLB 270309 AAA
TAFMCO
TAF AMD
KMCO 270309Z 2703/2724 10006KT P6SM FEW050 BKN250
     FM270600 08004KT P6SM SKC
     FM271400 08010KT P6SM SCT035
     FM271900 09014G22KT P6SM SCT040 BKN250=



000
FTUS42 KMLB 270309 AAA
TAFMCO
TAF AMD
KMCO 270309Z 2703/2724 10006KT P6SM FEW050 BKN250
     FM270600 08004KT P6SM SKC
     FM271400 08010KT P6SM SCT035
     FM271900 09014G22KT P6SM SCT040 BKN250=



000
FTUS42 KMLB 262320
TAFDAB
TAF
KDAB 262320Z 2700/2724 10012G18KT P6SM SCT250
     FM270300 11003KT P6SM SKC
     FM271400 08010KT P6SM SCT035
     FM271700 09012G18KT P6SM SCT030 BKN250=



000
FTUS42 KMLB 262320
TAFMLB
TAF
KMLB 262320Z 2700/2724 10012KT P6SM FEW035 SCT250
     FM270600 10006KT P6SM SKC
     FM271400 08012KT P6SM SCT035
     FM271700 09015G22KT P6SM SCT030 BKN250=



000
FTUS42 KMLB 262320
TAFVRB
TAF
KVRB 262320Z 2700/2724 09012KT P6SM SCT035 SCT250
     FM270600 10006KT P6SM SKC
     FM271400 09012KT P6SM SCT035
     FM271700 09014G22KT P6SM SCT030 BKN250=



000
FTUS42 KMLB 262320
TAFMCO
TAF
KMCO 262320Z 2700/2724 10013KT P6SM FEW045 SCT250
     FM270400 09004KT P6SM SKC
     FM271400 08010KT P6SM SCT035
     FM271900 09014G22KT P6SM SCT040 BKN250=



000
FTUS42 KMLB 262320
TAFSFB
TAF
KSFB 262320Z 2700/2724 10014KT P6SM SCT250
     FM270400 10004KT P6SM SKC
     FM271400 09010KT P6SM SCT035
     FM271900 09015G22KT P6SM SCT040 BKN250=



000
FTUS42 KMLB 262101 AAA
TAFMCO
TAF AMD
KMCO 262101Z 2621/2718 10012G20KT P6SM FEW040 BKN250
     FM270000 11010KT P6SM SKC
     FM270400 09004KT P6SM SKC
     FM271400 09010KT P6SM SCT035=



000
FTUS42 KMLB 261736
TAFMCO
TAF
KMCO 261736Z 2618/2718 12012G20KT P6SM SCT040 SCT250
     FM270000 12010KT P6SM FEW030 SCT250
     FM270300 07005KT P6SM FEW020 SCT250
     FM271400 09009KT P6SM SCT020 SCT250=



000
FTUS42 KMLB 261736
TAFVRB
TAF
KVRB 261736Z 2618/2718 11014G22KT P6SM VCSH SCT030 SCT250
     FM270000 11010KT P6SM SCT020
     FM270500 10006KT P6SM FEW020 SCT250
     FM271300 09011KT P6SM SCT020 SCT250=



000
FTUS42 KMLB 261736
TAFMLB
TAF
KMLB 261736Z 2618/2718 11013G22KT P6SM SCT030 SCT250
     FM270000 12010KT P6SM SCT020
     FM270500 08007KT P6SM FEW020 SCT250
     FM271300 09012KT P6SM SCT020 SCT250=



000
FTUS42 KMLB 261736
TAFSFB
TAF
KSFB 261736Z 2618/2718 11010KT P6SM SCT040 SCT250
     FM270100 07006KT P6SM FEW020 SCT250
     FM271400 10009KT P6SM SCT020 SCT250=



000
FTUS42 KMLB 261736
TAFDAB
TAF
KDAB 261736Z 2618/2718 10011G17KT P6SM SCT035 SCT060 SCT250
     FM270000 11006KT P6SM FEW020 SCT250
     FM271400 08009KT P6SM SCT020 SCT250=



000
FTUS42 KMLB 261505 AAA
TAFMCO
TAF AMD
KMCO 261505Z 2615/2712 11010KT P6SM VCSH SCT025 SCT070 BKN250
     FM261900 10014G21KT P6SM FEW040 SCT250
     FM270000 12010KT P6SM FEW030 BKN250
     FM270300 12005KT P6SM FEW020 SCT250=



000
FTUS42 KMLB 261141
TAFDAB
TAF
KDAB 261141Z 2612/2712 11003KT P6SM VCSH FEW020 SCT250
     FM261400 11009KT P6SM VCSH SCT025
     FM261700 11011G17KT P6SM SCT030 BKN050
     FM270000 12006KT P6SM FEW025 BKN250=



000
FTUS42 KMLB 261141
TAFMCO
TAF
KMCO 261141Z 2612/2712 09005KT P6SM VCSH SCT020 BKN250
     FM261300 11010KT P6SM VCSH SCT030 SCT250
      TEMPO 2613/2615 -SHRA BKN030 BKN050
     FM261900 10014G21KT P6SM SCT040 BKN060 BKN250
     FM270000 12010KT P6SM FEW030 BKN250
     FM270300 12005KT P6SM FEW020 SCT250=



000
FTUS42 KMLB 261141
TAFSFB
TAF
KSFB 261141Z 2612/2712 09003KT P6SM FEW020 BKN250
     FM261400 12009KT P6SM SCT030 SCT250
      TEMPO 2614/2617 -SHRA BKN030 BKN050
     FM261900 10013G21KT P6SM SCT040
     FM262300 11009KT P6SM FEW030 BKN250
     FM270200 12005KT P6SM FEW020 SCT250=



000
FTUS42 KMLB 261141
TAFMLB
TAF
KMLB 261141Z 2612/2712 11012KT P6SM VCSH SCT025 BKN250
      TEMPO 2612/2614 BKN025
     FM261600 12015G22KT P6SM SCT030 BKN250
     FM270000 12011KT P6SM SCT025=



000
FTUS42 KMLB 261141
TAFVRB
TAF
KVRB 261141Z 2612/2712 11011KT P6SM VCSH SCT025 SCT050 BKN250
      TEMPO 2612/2614 -SHRA BKN025 OVC050
     FM261500 11015G22KT P6SM SCT030 BKN250
     FM270000 12010KT P6SM VCSH SCT025=



000
FTUS42 KMLB 261141
TAFSFB
TAF
KSFB 261141Z 2612/2712 09003KT P6SM FEW020 BKN250
     FM261400 12009KT P6SM SCT030 SCT250
      TEMPO 2614/2617 -SHRA BKN030 BKN050
     FM261900 10013G21KT P6SM SCT040
     FM262300 11009KT P6SM FEW030 BKN250
     FM270200 12005KT P6SM FEW020 SCT250=



000
FTUS42 KMLB 261141
TAFMLB
TAF
KMLB 261141Z 2612/2712 11012KT P6SM VCSH SCT025 BKN250
      TEMPO 2612/2614 BKN025
     FM261600 12015G22KT P6SM SCT030 BKN250
     FM270000 12011KT P6SM SCT025=



000
FTUS42 KMLB 261141
TAFDAB
TAF
KDAB 261141Z 2612/2712 11003KT P6SM VCSH FEW020 SCT250
     FM261400 11009KT P6SM VCSH SCT025
     FM261700 11011G17KT P6SM SCT030 BKN050
     FM270000 12006KT P6SM FEW025 BKN250=



000
FTUS42 KMLB 261141
TAFMCO
TAF
KMCO 261141Z 2612/2712 09005KT P6SM VCSH SCT020 BKN250
     FM261300 11010KT P6SM VCSH SCT030 SCT250
      TEMPO 2613/2615 -SHRA BKN030 BKN050
     FM261900 10014G21KT P6SM SCT040 BKN060 BKN250
     FM270000 12010KT P6SM FEW030 BKN250
     FM270300 12005KT P6SM FEW020 SCT250=



000
FTUS42 KMLB 261141
TAFVRB
TAF
KVRB 261141Z 2612/2712 11011KT P6SM VCSH SCT025 SCT050 BKN250
      TEMPO 2612/2614 -SHRA BKN025 OVC050
     FM261500 11015G22KT P6SM SCT030 BKN250
     FM270000 12010KT P6SM VCSH SCT025=



000
FTUS42 KMLB 261052 AAA
TAFVRB
TAF AMD
KVRB 261052Z 2611/2706 11010KT P6SM BKN025
     FM261400 11012KT P6SM SCT025 BKN050
     FM261700 10014G21KT P6SM SCT030
     FM270000 09011KT P6SM SCT025=



000
FTUS42 KMLB 260859 AAA
TAFMCO
TAF AMD
KMCO 260859Z 2609/2706 10004KT P6SM FEW020 BKN250
     FM261400 11010KT P6SM FEW025 SCT250
     FM261900 10014G21KT P6SM SCT040 BKN060
     FM270000 09010KT P6SM FEW030 BKN250=



    US Dept of Commerce
    National Oceanic and Atmospheric Administration
    National Weather Service
    1325 East West Highway
    Silver Spring, MD 20910
    Page Author: NWS Internet Services Team
Disclaimer
Information Quality
Credits
Glossary
Privacy Policy
Freedom of Information Act (FOIA)
About Us
Career Opportunities